Time;durP1;ratioP1;P1;durP2;ratioP2;P2;SDS_P1;SDS_P2;PMS_P1;PMS_P2;Temp;Humidity;BMP_temperature;BMP_pressure;BME280_temperature;BME280_humidity;BME280_pressure;Samples;Min_cycle;Max_cycle;Signal;HPM_P1;HPM_P2
2023/08/12 00:02:13;;;;;;;4.40;3.65;;;;;;;;;;5048852;28;20013;-77
2023/08/12 00:04:39;;;;;;;5.00;3.85;;;;;;;;;;5046560;28;20122;-79
2023/08/12 00:07:04;;;;;;;7.38;3.53;;;;;;;;;;5051596;28;20435;-77
2023/08/12 00:09:29;;;;;;;3.75;3.20;;;;;;;;;;5055041;28;20072;-74
2023/08/12 00:11:55;;;;;;;6.68;3.65;;;;;;;;;;5054242;28;20052;-77
2023/08/12 00:14:20;;;;;;;3.70;3.00;;;;;;;;;;5055600;28;20079;-77
2023/08/12 00:16:45;;;;;;;4.90;3.55;;;;;;;;;;5051838;28;20033;-77
2023/08/12 00:19:11;;;;;;;3.50;3.15;;;;;;;;;;5049125;28;20507;-77
2023/08/12 00:21:36;;;;;;;4.50;3.15;;;;;;;;;;5057184;28;20021;-77
2023/08/12 00:24:01;;;;;;;8.45;3.53;;;;;;;;;;5057818;28;20032;-77
2023/08/12 00:26:27;;;;;;;3.50;3.20;;;;;;;;;;5055053;28;20025;-77
2023/08/12 00:28:52;;;;;;;6.45;3.40;;;;;;;;;;5051433;28;20404;-76
2023/08/12 00:31:18;;;;;;;4.88;3.53;;;;;;;;;;5051642;28;20112;-78
2023/08/12 00:33:43;;;;;;;9.18;3.85;;;;;;;;;;5057946;28;20029;-76
2023/08/12 00:36:08;;;;;;;3.75;3.40;;;;;;;;;;5050158;28;20035;-76
2023/08/12 00:38:34;;;;;;;4.25;3.25;;;;;;;;;;5058954;28;20032;-75
2023/08/12 00:40:59;;;;;;;3.83;3.50;;;;;;;;;;5058524;28;20068;-76
2023/08/12 00:43:24;;;;;;;3.83;3.53;;;;;;;;;;5061017;28;20090;-77
2023/08/12 00:45:50;;;;;;;8.95;3.58;;;;;;;;;;5043979;28;20138;-77
2023/08/12 00:48:16;;;;;;;3.60;3.30;;;;;;;;;;5043085;28;20068;-77
2023/08/12 00:50:42;;;;;;;5.72;3.40;;;;;;;;;;5043744;28;20029;-76
2023/08/12 00:53:08;;;;;;;3.70;3.40;;;;;;;;;;5062537;28;20507;-77
2023/08/12 00:55:33;;;;;;;7.50;3.42;;;;;;;;;;5061669;28;20371;-77
2023/08/12 00:57:59;;;;;;;4.20;3.80;;;;;;;;;;5058345;28;20072;-77
2023/08/12 01:00:24;;;;;;;3.35;3.15;;;;;;;;;;5058411;28;20440;-76
2023/08/12 01:02:51;;;;;;;3.20;2.95;;;;;;;;;;5059978;28;20028;-78
2023/08/12 01:05:17;;;;;;;4.30;3.05;;;;;;;;;;5045695;28;20124;-77
2023/08/12 01:07:42;;;;;;;7.47;3.75;;;;;;;;;;5052133;28;20514;-75
2023/08/12 01:10:09;;;;;;;5.50;3.40;;;;;;;;;;5060426;28;20035;-77
2023/08/12 01:12:39;;;;;;;5.03;3.40;;;;;;;;;;5060219;28;20029;-77
2023/08/12 01:15:04;;;;;;;;;;;;;;;;;;5055903;28;20071;-80
2023/08/12 01:17:31;;;;;;;3.80;3.40;;;;;;;;;;5060070;28;19959;-77
2023/08/12 01:19:56;;;;;;;4.05;3.17;;;;;;;;;;5060807;28;20024;-77
2023/08/12 01:22:23;;;;;;;4.07;3.45;;;;;;;;;;5058328;28;20029;-77
2023/08/12 01:24:48;;;;;;;5.18;3.13;;;;;;;;;;5049356;28;20020;-77
2023/08/12 01:27:14;;;;;;;3.50;3.20;;;;;;;;;;5048205;28;20463;-77
2023/08/12 01:29:41;;;;;;;7.43;3.63;;;;;;;;;;5047463;28;20024;-77
2023/08/12 01:32:06;;;;;;;4.38;3.65;;;;;;;;;;5055747;28;20313;-76
2023/08/12 01:34:37;;;;;;;5.40;3.25;;;;;;;;;;5046776;28;20037;-77
2023/08/12 01:37:04;;;;;;;5.20;3.40;;;;;;;;;;5053929;28;20033;-77
2023/08/12 01:39:30;;;;;;;3.92;3.53;;;;;;;;;;5058674;28;20071;-76
2023/08/12 01:41:56;;;;;;;4.93;3.63;;;;;;;;;;5059398;28;20028;-78
2023/08/12 01:44:21;;;;;;;4.57;3.35;;;;;;;;;;5040458;28;20139;-76
2023/08/12 01:46:47;;;;;;;5.03;3.30;;;;;;;;;;5054801;28;20439;-78
2023/08/12 01:49:12;;;;;;;4.75;3.35;;;;;;;;;;5040419;28;20032;-77
2023/08/12 01:51:37;;;;;;;4.18;3.40;;;;;;;;;;5049983;28;20024;-76
2023/08/12 01:54:03;;;;;;;6.32;3.00;;;;;;;;;;5060304;28;20020;-76
2023/08/12 01:56:28;;;;;;;4.60;3.95;;;;;;;;;;5060270;28;20017;-77
2023/08/12 01:58:53;;;;;;;4.65;3.60;;;;;;;;;;5054388;28;20509;-77
2023/08/12 02:01:19;;;;;;;5.97;3.28;;;;;;;;;;5048734;28;20036;-77
2023/08/12 02:03:44;;;;;;;6.25;3.67;;;;;;;;;;5059483;28;20093;-78
2023/08/12 02:06:09;;;;;;;3.42;3.00;;;;;;;;;;5060701;28;20029;-79
2023/08/12 02:08:35;;;;;;;3.92;3.60;;;;;;;;;;5061390;28;20043;-78
2023/08/12 02:11:00;;;;;;;3.75;3.20;;;;;;;;;;5057071;28;20085;-78
2023/08/12 02:13:25;;;;;;;4.40;3.28;;;;;;;;;;5059596;28;20043;-77
2023/08/12 02:15:50;;;;;;;3.92;3.33;;;;;;;;;;5047315;28;20096;-77
2023/08/12 02:18:16;;;;;;;3.53;3.22;;;;;;;;;;5056656;28;20115;-77
2023/08/12 02:20:41;;;;;;;4.55;3.35;;;;;;;;;;5050263;28;20111;-76
2023/08/12 02:23:07;;;;;;;5.70;3.33;;;;;;;;;;5047737;28;20052;-76
2023/08/12 02:25:32;;;;;;;4.32;3.15;;;;;;;;;;5059138;28;20150;-77
2023/08/12 02:27:58;;;;;;;3.53;3.22;;;;;;;;;;5057013;28;20450;-76
2023/08/12 02:30:23;;;;;;;6.65;3.22;;;;;;;;;;5044981;28;20029;-77
2023/08/12 02:32:49;;;;;;;5.30;3.53;;;;;;;;;;5043459;28;20435;-76
2023/08/12 02:35:15;;;;;;;3.95;3.47;;;;;;;;;;5058626;28;20025;-78
2023/08/12 02:37:40;;;;;;;5.72;3.30;;;;;;;;;;5058293;28;20372;-79
2023/08/12 02:40:06;;;;;;;3.55;3.25;;;;;;;;;;5057542;28;20105;-76
2023/08/12 02:42:31;;;;;;;3.60;3.30;;;;;;;;;;5055478;28;20029;-77
2023/08/12 02:44:56;;;;;;;5.18;3.60;;;;;;;;;;5053175;28;20056;-77
2023/08/12 02:47:22;;;;;;;4.13;3.72;;;;;;;;;;5042871;28;20020;-77
2023/08/12 02:49:47;;;;;;;7.88;3.50;;;;;;;;;;5049393;28;20029;-78
2023/08/12 02:52:13;;;;;;;5.85;3.40;;;;;;;;;;5053109;28;20028;-77
2023/08/12 02:54:38;;;;;;;7.88;3.42;;;;;;;;;;5057126;28;20057;-76
2023/08/12 02:57:03;;;;;;;3.65;3.33;;;;;;;;;;5062352;28;20571;-76
2023/08/12 02:59:29;;;;;;;4.57;3.10;;;;;;;;;;5048176;28;20062;-76
2023/08/12 03:01:55;;;;;;;6.22;3.28;;;;;;;;;;5054672;28;20028;-77
2023/08/12 03:04:20;;;;;;;9.43;3.78;;;;;;;;;;5044900;28;20105;-77
2023/08/12 03:06:46;;;;;;;4.97;3.40;;;;;;;;;;5051841;28;20017;-77
2023/08/12 03:09:11;;;;;;;4.13;3.05;;;;;;;;;;5042871;28;20132;-76
2023/08/12 03:11:36;;;;;;;6.50;3.53;;;;;;;;;;5044777;28;20043;-77
2023/08/12 03:14:02;;;;;;;6.70;3.50;;;;;;;;;;5041962;28;20028;-77
2023/08/12 03:16:27;;;;;;;6.03;3.20;;;;;;;;;;5045031;28;20033;-77
2023/08/12 03:18:52;;;;;;;3.95;3.63;;;;;;;;;;5054719;28;20048;-78
2023/08/12 03:21:18;;;;;;;4.32;3.70;;;;;;;;;;5047556;28;20032;-80
2023/08/12 03:23:43;;;;;;;3.55;3.20;;;;;;;;;;5056590;28;20416;-77
2023/08/12 03:26:08;;;;;;;3.83;3.20;;;;;;;;;;5057508;28;20356;-77
2023/08/12 03:28:34;;;;;;;7.95;3.42;;;;;;;;;;5057953;28;20024;-77
2023/08/12 03:31:00;;;;;;;4.10;3.20;;;;;;;;;;5044440;28;20317;-79
2023/08/12 03:33:25;;;;;;;5.00;3.70;;;;;;;;;;5057334;28;20056;-77
2023/08/12 03:35:50;;;;;;;4.05;3.00;;;;;;;;;;5056805;28;20033;-76
2023/08/12 03:38:16;;;;;;;4.68;3.20;;;;;;;;;;5045608;28;20076;-77
2023/08/12 03:40:42;;;;;;;6.47;3.70;;;;;;;;;;5058580;28;20115;-77
2023/08/12 03:43:08;;;;;;;5.18;3.25;;;;;;;;;;5057892;28;20488;-76
2023/08/12 03:45:39;;;;;;;5.20;3.38;;;;;;;;;;5058124;28;20035;-77
2023/08/12 03:48:04;;;;;;;5.82;3.45;;;;;;;;;;5040692;28;20028;-76
2023/08/12 03:50:32;;;;;;;3.53;3.22;;;;;;;;;;5052318;28;20341;-77
2023/08/12 03:52:57;;;;;;;3.47;3.08;;;;;;;;;;5042240;28;20416;-76
2023/08/12 03:55:23;;;;;;;5.20;3.60;;;;;;;;;;5050468;28;20033;-77
2023/08/12 03:57:48;;;;;;;3.58;3.10;;;;;;;;;;5056678;28;20048;-76
2023/08/12 04:00:13;;;;;;;3.85;3.50;;;;;;;;;;5057029;28;20045;-77
2023/08/12 04:02:39;;;;;;;6.63;3.58;;;;;;;;;;5057212;28;20028;-77
2023/08/12 04:05:04;;;;;;;3.97;3.53;;;;;;;;;;5042180;28;20135;-77
2023/08/12 04:07:31;;;;;;;5.53;3.78;;;;;;;;;;5068694;28;20119;-77
2023/08/12 04:09:56;;;;;;;5.18;3.60;;;;;;;;;;5044425;28;20131;-78
2023/08/12 04:12:21;;;;;;;5.60;3.60;;;;;;;;;;5057709;28;20488;-76
2023/08/12 04:14:47;;;;;;;5.07;3.83;;;;;;;;;;5055259;28;20044;-77
2023/08/12 04:17:13;;;;;;;7.88;3.85;;;;;;;;;;5058585;28;20036;-76
2023/08/12 04:19:38;;;;;;;5.07;3.40;;;;;;;;;;5058726;28;20036;-76
2023/08/12 04:22:04;;;;;;;7.60;3.55;;;;;;;;;;5058306;28;20100;-76
2023/08/12 04:24:29;;;;;;;3.55;3.22;;;;;;;;;;5043049;28;20424;-79
2023/08/12 04:26:54;;;;;;;5.32;3.65;;;;;;;;;;5057253;28;20021;-77
2023/08/12 04:29:20;;;;;;;4.05;3.60;;;;;;;;;;5049396;28;20017;-77
2023/08/12 04:31:45;;;;;;;5.22;3.67;;;;;;;;;;5049041;28;20417;-77
2023/08/12 04:34:10;;;;;;;4.60;4.22;;;;;;;;;;5049936;28;20028;-76
2023/08/12 04:36:36;;;;;;;4.95;4.50;;;;;;;;;;5042399;28;20036;-77
2023/08/12 04:39:01;;;;;;;4.70;3.85;;;;;;;;;;5043192;28;20041;-76
2023/08/12 04:41:26;;;;;;;6.13;4.00;;;;;;;;;;5041130;28;21453;-76
2023/08/12 04:43:52;;;;;;;4.72;4.20;;;;;;;;;;5045333;28;20034;-77
2023/08/12 04:46:17;;;;;;;5.53;4.38;;;;;;;;;;5044640;28;20112;-78
2023/08/12 04:48:43;;;;;;;8.80;4.28;;;;;;;;;;5042465;28;20047;-76
2023/08/12 04:51:08;;;;;;;6.07;4.32;;;;;;;;;;5059256;28;20038;-77
2023/08/12 04:53:34;;;;;;;5.10;3.95;;;;;;;;;;5042861;28;20064;-77
2023/08/12 04:55:59;;;;;;;9.10;4.55;;;;;;;;;;5042435;28;20440;-77
2023/08/12 04:58:25;;;;;;;5.00;4.32;;;;;;;;;;5040744;28;20043;-76
2023/08/12 05:00:52;;;;;;;8.52;4.40;;;;;;;;;;5045465;28;20024;-76
2023/08/12 05:03:17;;;;;;;5.03;4.50;;;;;;;;;;5043565;28;20499;-78
2023/08/12 05:05:43;;;;;;;5.15;4.38;;;;;;;;;;5040221;28;20037;-77
2023/08/12 05:08:08;;;;;;;4.85;4.20;;;;;;;;;;5041027;28;20020;-77
2023/08/12 05:10:33;;;;;;;5.97;4.70;;;;;;;;;;5039006;28;20954;-76
2023/08/12 05:12:59;;;;;;;5.57;4.35;;;;;;;;;;5042235;28;20074;-79
2023/08/12 05:15:24;;;;;;;5.82;4.22;;;;;;;;;;5041337;28;20040;-79
2023/08/12 05:17:49;;;;;;;4.85;4.45;;;;;;;;;;5047044;28;21027;-75
2023/08/12 05:20:15;;;;;;;7.18;5.05;;;;;;;;;;5045854;28;20430;-75
2023/08/12 05:22:40;;;;;;;6.80;5.25;;;;;;;;;;5043494;28;21712;-75
2023/08/12 05:25:05;;;;;;;10.63;6.28;;;;;;;;;;5061435;28;20042;-76
2023/08/12 05:27:31;;;;;;;10.52;7.00;;;;;;;;;;5058967;28;20083;-77
2023/08/12 05:29:56;;;;;;;8.30;5.93;;;;;;;;;;5050141;28;20020;-77
2023/08/12 05:32:21;;;;;;;6.90;5.50;;;;;;;;;;5039540;28;20107;-76
2023/08/12 05:34:49;;;;;;;7.05;5.75;;;;;;;;;;5040688;28;20020;-76
2023/08/12 05:37:14;;;;;;;6.25;5.50;;;;;;;;;;5040986;28;20033;-76
2023/08/12 05:39:40;;;;;;;9.63;6.93;;;;;;;;;;5038635;28;20069;-76
2023/08/12 05:42:05;;;;;;;13.98;7.80;;;;;;;;;;5055473;28;20040;-75
2023/08/12 05:44:31;;;;;;;11.88;7.32;;;;;;;;;;5046278;28;20025;-75
2023/08/12 05:46:56;;;;;;;9.57;6.45;;;;;;;;;;5043726;28;20024;-76
2023/08/12 05:49:22;;;;;;;10.80;6.97;;;;;;;;;;5042944;28;20123;-76
2023/08/12 05:51:47;;;;;;;13.15;7.63;;;;;;;;;;5040069;28;20051;-76
2023/08/12 05:54:12;;;;;;;10.23;6.68;;;;;;;;;;5041744;28;20175;-76
2023/08/12 05:56:38;;;;;;;6.05;4.78;;;;;;;;;;5051283;28;20119;-76
2023/08/12 05:59:03;;;;;;;4.97;3.88;;;;;;;;;;5056590;28;20149;-84
2023/08/12 06:01:29;;;;;;;4.18;3.78;;;;;;;;;;5057594;28;20056;-84
2023/08/12 06:03:54;;;;;;;4.13;3.72;;;;;;;;;;5045124;28;20186;-77
2023/08/12 06:06:19;;;;;;;5.30;3.85;;;;;;;;;;5057831;28;20090;-76
2023/08/12 06:08:45;;;;;;;4.88;4.07;;;;;;;;;;5042239;28;20055;-78
2023/08/12 06:11:10;;;;;;;5.43;4.90;;;;;;;;;;5043879;28;20024;-76
2023/08/12 06:13:35;;;;;;;6.80;4.75;;;;;;;;;;5042949;28;20468;-75
2023/08/12 06:16:01;;;;;;;9.75;6.00;;;;;;;;;;5040528;28;20393;-77
2023/08/12 06:18:26;;;;;;;9.35;5.25;;;;;;;;;;5040090;28;20044;-76
2023/08/12 06:20:51;;;;;;;4.43;4.03;;;;;;;;;;5040811;28;20029;-75
2023/08/12 06:23:17;;;;;;;5.95;4.13;;;;;;;;;;5042882;28;20066;-76
2023/08/12 06:25:43;;;;;;;6.88;4.30;;;;;;;;;;5038549;28;20111;-76
2023/08/12 06:28:09;;;;;;;4.18;3.78;;;;;;;;;;5037625;28;20033;-76
2023/08/12 06:30:34;;;;;;;4.55;3.70;;;;;;;;;;5037592;28;20093;-76
2023/08/12 06:32:59;;;;;;;5.22;3.65;;;;;;;;;;5041587;28;20028;-76
2023/08/12 06:35:25;;;;;;;5.47;3.80;;;;;;;;;;5038299;28;20043;-77
2023/08/12 06:37:50;;;;;;;4.10;3.70;;;;;;;;;;5042083;28;20083;-78
2023/08/12 06:40:15;;;;;;;3.75;3.40;;;;;;;;;;5039169;28;20071;-77
2023/08/12 06:42:41;;;;;;;4.10;3.70;;;;;;;;;;5035146;28;20021;-78
2023/08/12 06:45:07;;;;;;;4.60;3.40;;;;;;;;;;5036786;28;20064;-77
2023/08/12 06:47:32;;;;;;;6.78;3.45;;;;;;;;;;5043472;28;20039;-78
2023/08/12 06:49:58;;;;;;;5.85;3.22;;;;;;;;;;5040121;28;20073;-79
2023/08/12 06:52:23;;;;;;;4.05;3.33;;;;;;;;;;5045380;28;20077;-80
2023/08/12 06:54:49;;;;;;;6.18;3.40;;;;;;;;;;5042855;28;20016;-78
2023/08/12 06:57:14;;;;;;;3.47;3.17;;;;;;;;;;5041598;28;20040;-80
2023/08/12 06:59:39;;;;;;;3.80;3.20;;;;;;;;;;5051107;28;20032;-77
2023/08/12 07:02:06;;;;;;;3.70;2.92;;;;;;;;;;5042731;28;20036;-76
2023/08/12 07:04:31;;;;;;;4.20;3.10;;;;;;;;;;5056209;28;20032;-77
2023/08/12 07:06:56;;;;;;;6.55;3.30;;;;;;;;;;5053792;28;20098;-79
2023/08/12 07:09:22;;;;;;;4.85;3.35;;;;;;;;;;5055299;28;20020;-79
2023/08/12 07:11:47;;;;;;;3.83;3.17;;;;;;;;;;5053219;28;20021;-78
2023/08/12 07:14:12;;;;;;;5.95;3.30;;;;;;;;;;5055688;28;20412;-78
2023/08/12 07:16:38;;;;;;;6.60;4.00;;;;;;;;;;5054108;28;20016;-78
2023/08/12 07:19:03;;;;;;;4.25;3.30;;;;;;;;;;5057348;28;20028;-79
2023/08/12 07:21:28;;;;;;;6.18;3.70;;;;;;;;;;5058049;28;20032;-81
2023/08/12 07:23:54;;;;;;;3.28;3.05;;;;;;;;;;5058206;28;20036;-82
2023/08/12 07:26:19;;;;;;;4.38;3.33;;;;;;;;;;5059904;28;20025;-84
2023/08/12 07:28:44;;;;;;;3.80;3.50;;;;;;;;;;5061825;28;20438;-79
2023/08/12 07:31:10;;;;;;;6.00;3.40;;;;;;;;;;5064417;28;20477;-77
2023/08/12 07:33:35;;;;;;;3.53;3.22;;;;;;;;;;5055290;28;20021;-76
2023/08/12 07:36:01;;;;;;;3.33;3.03;;;;;;;;;;5051698;28;20039;-75
2023/08/12 07:38:26;;;;;;;6.78;3.28;;;;;;;;;;5049993;28;20040;-75
2023/08/12 07:40:52;;;;;;;5.63;2.83;;;;;;;;;;5053274;28;20086;-77
2023/08/12 07:43:17;;;;;;;10.32;3.60;;;;;;;;;;5054465;28;20033;-76
2023/08/12 07:45:42;;;;;;;3.83;3.15;;;;;;;;;;5054240;28;20028;-80
2023/08/12 07:48:08;;;;;;;5.03;3.53;;;;;;;;;;5052393;28;20466;-79
2023/08/12 07:50:33;;;;;;;5.43;3.08;;;;;;;;;;5051032;28;20420;-81
2023/08/12 07:52:59;;;;;;;4.35;2.95;;;;;;;;;;5066326;28;20020;-78
2023/08/12 07:55:24;;;;;;;2.97;2.78;;;;;;;;;;5045105;28;20384;-81
2023/08/12 07:57:49;;;;;;;3.13;2.53;;;;;;;;;;5052902;28;20028;-75
2023/08/12 08:00:15;;;;;;;3.28;2.30;;;;;;;;;;5044837;28;20032;-75
2023/08/12 08:02:40;;;;;;;4.35;2.67;;;;;;;;;;5055171;28;20036;-75
2023/08/12 08:05:06;;;;;;;4.20;2.80;;;;;;;;;;5048444;28;20025;-75
2023/08/12 08:07:31;;;;;;;3.22;2.38;;;;;;;;;;5057166;28;20032;-76
2023/08/12 08:09:57;;;;;;;2.55;2.35;;;;;;;;;;5056532;28;20028;-75
2023/08/12 08:12:22;;;;;;;5.10;2.80;;;;;;;;;;5056894;28;20030;-75
2023/08/12 08:14:47;;;;;;;2.50;2.30;;;;;;;;;;5045400;28;20056;-75
2023/08/12 08:17:13;;;;;;;3.67;2.30;;;;;;;;;;5056400;28;20025;-75
2023/08/12 08:19:38;;;;;;;4.40;2.13;;;;;;;;;;5043038;28;20114;-75
2023/08/12 08:22:03;;;;;;;2.78;2.30;;;;;;;;;;5058129;28;20188;-75
2023/08/12 08:24:29;;;;;;;2.08;1.90;;;;;;;;;;5056566;28;20108;-75
2023/08/12 08:26:54;;;;;;;2.50;2.20;;;;;;;;;;5054860;28;20021;-74
2023/08/12 08:29:20;;;;;;;2.10;1.90;;;;;;;;;;5058232;28;20020;-76
2023/08/12 08:31:45;;;;;;;2.75;1.90;;;;;;;;;;5060216;28;20421;-75
2023/08/12 08:34:10;;;;;;;4.18;2.00;;;;;;;;;;5059306;28;20102;-76
2023/08/12 08:36:36;;;;;;;2.60;1.63;;;;;;;;;;5056829;28;20020;-75
2023/08/12 08:39:02;;;;;;;2.05;1.80;;;;;;;;;;5059391;28;20036;-77
2023/08/12 08:41:30;;;;;;;1.92;1.80;;;;;;;;;;5058990;28;20016;-74
2023/08/12 08:43:56;;;;;;;4.45;2.10;;;;;;;;;;5056479;28;20524;-76
2023/08/12 08:46:22;;;;;;;1.90;1.67;;;;;;;;;;5058585;28;20044;-74
2023/08/12 08:48:48;;;;;;;1.70;1.60;;;;;;;;;;5057587;28;20447;-76
2023/08/12 08:51:14;;;;;;;3.13;1.88;;;;;;;;;;5059666;28;20028;-78
2023/08/12 08:53:39;;;;;;;3.50;2.28;;;;;;;;;;5059463;28;20409;-75
2023/08/12 08:56:05;;;;;;;3.13;1.98;;;;;;;;;;5060595;28;20020;-76
2023/08/12 08:58:31;;;;;;;1.95;1.80;;;;;;;;;;5060807;28;20210;-73
2023/08/12 09:00:56;;;;;;;3.20;2.10;;;;;;;;;;5060537;28;20111;-77
2023/08/12 09:03:22;;;;;;;4.63;2.30;;;;;;;;;;5060901;28;20448;-74
2023/08/12 09:05:47;;;;;;;2.40;2.05;;;;;;;;;;5059907;28;20367;-74
2023/08/12 09:08:13;;;;;;;2.40;2.20;;;;;;;;;;5056815;28;20037;-74
2023/08/12 09:10:40;;;;;;;3.78;2.00;;;;;;;;;;5059501;28;20431;-74
2023/08/12 09:13:06;;;;;;;3.92;2.17;;;;;;;;;;5058942;28;20021;-75
2023/08/12 09:15:31;;;;;;;2.17;2.03;;;;;;;;;;5060812;28;20028;-77
2023/08/12 09:17:56;;;;;;;3.53;2.30;;;;;;;;;;5061370;28;20352;-74
2023/08/12 09:20:22;;;;;;;2.30;2.10;;;;;;;;;;5060498;28;20037;-74
2023/08/12 09:22:57;;;;;;;2.55;1.95;;;;;;;;;;5060217;28;20028;-73
2023/08/12 09:25:23;;;;;;;2.08;1.88;;;;;;;;;;5059002;28;20074;-76
2023/08/12 09:27:48;;;;;;;4.10;2.40;;;;;;;;;;5059844;28;20409;-76
2023/08/12 09:30:14;;;;;;;2.30;2.10;;;;;;;;;;5058809;28;20447;-75
2023/08/12 09:32:40;;;;;;;3.53;2.05;;;;;;;;;;5062034;28;20025;-74
2023/08/12 09:35:05;;;;;;;2.67;2.00;;;;;;;;;;5054795;28;20028;-75
2023/08/12 09:37:31;;;;;;;2.78;2.05;;;;;;;;;;5051004;28;20356;-74
2023/08/12 09:39:57;;;;;;;2.00;1.90;;;;;;;;;;5061639;28;20114;-73
2023/08/12 09:42:22;;;;;;;3.30;1.88;;;;;;;;;;5061073;28;20024;-77
2023/08/12 09:44:48;;;;;;;2.17;1.98;;;;;;;;;;5061276;28;20040;-74
2023/08/12 09:47:14;;;;;;;2.95;1.67;;;;;;;;;;5058625;28;20033;-77
2023/08/12 09:49:40;;;;;;;4.57;2.00;;;;;;;;;;5038244;28;20024;-74
2023/08/12 09:52:06;;;;;;;4.68;2.28;;;;;;;;;;5043673;28;20116;-76
2023/08/12 09:54:32;;;;;;;2.28;2.08;;;;;;;;;;5045103;28;20111;-74
2023/08/12 09:56:59;;;;;;;3.78;2.22;;;;;;;;;;5045062;28;20236;-75
2023/08/12 09:59:27;;;;;;;2.85;2.15;;;;;;;;;;5048986;28;20119;-75
2023/08/12 10:01:52;;;;;;;2.10;1.77;;;;;;;;;;5044960;28;20060;-76
2023/08/12 10:04:20;;;;;;;5.20;2.42;;;;;;;;;;5044868;28;20641;-74
2023/08/12 10:06:47;;;;;;;3.78;2.38;;;;;;;;;;5045827;28;20090;-74
2023/08/12 10:09:13;;;;;;;2.30;2.10;;;;;;;;;;5058908;28;20315;-75
2023/08/12 10:11:39;;;;;;;4.13;2.10;;;;;;;;;;5040904;28;20055;-75
2023/08/12 10:14:04;;;;;;;2.25;1.98;;;;;;;;;;5042656;28;20024;-78
2023/08/12 10:16:30;;;;;;;2.40;2.20;;;;;;;;;;5040437;28;20025;-77
2023/08/12 10:18:57;;;;;;;3.25;2.20;;;;;;;;;;5043121;28;20028;-76
2023/08/12 10:21:23;;;;;;;2.22;2.03;;;;;;;;;;5045251;28;20039;-74
2023/08/12 10:23:49;;;;;;;5.07;2.00;;;;;;;;;;5043653;28;20040;-76
2023/08/12 10:26:15;;;;;;;3.55;2.30;;;;;;;;;;5045625;28;20024;-75
2023/08/12 10:28:40;;;;;;;3.38;1.90;;;;;;;;;;5043036;28;20024;-75
2023/08/12 10:31:06;;;;;;;2.33;2.08;;;;;;;;;;5040145;28;20028;-74
2023/08/12 10:33:35;;;;;;;3.08;2.10;;;;;;;;;;5038516;28;20032;-76
2023/08/12 10:36:00;;;;;;;;;;;;;;;;;;5039352;28;20025;-77
2023/08/12 10:38:26;;;;;;;2.73;2.13;;;;;;;;;;5036671;28;19916;-75
2023/08/12 10:40:52;;;;;;;2.60;2.10;;;;;;;;;;5040458;28;20378;-77
2023/08/12 10:43:17;;;;;;;2.03;1.90;;;;;;;;;;5040914;28;20127;-75
2023/08/12 10:45:43;;;;;;;3.17;2.17;;;;;;;;;;5036637;28;20104;-75
2023/08/12 10:48:08;;;;;;;8.45;2.13;;;;;;;;;;5041161;28;20024;-75
2023/08/12 10:50:34;;;;;;;2.70;2.10;;;;;;;;;;5036689;28;20031;-73
2023/08/12 10:53:19;;;;;;;2.13;1.90;;;;;;;;;;5038219;28;20381;-76
2023/08/12 10:55:48;;;;;;;2.65;2.10;;;;;;;;;;5042308;28;20028;-73
2023/08/12 10:58:23;;;;;;;2.95;2.58;;;;;;;;;;5033868;28;20048;-74
2023/08/12 11:00:53;;;;;;;2.30;2.00;;;;;;;;;;5038806;28;20033;-74
2023/08/12 11:03:18;;;;;;;2.88;2.13;;;;;;;;;;5038652;28;20450;-76
2023/08/12 11:05:44;;;;;;;2.72;2.22;;;;;;;;;;5040262;28;20103;-75
2023/08/12 11:08:13;;;;;;;2.20;2.00;;;;;;;;;;5036676;28;20056;-73
2023/08/12 11:10:38;;;;;;;2.45;2.13;;;;;;;;;;5036927;28;20468;-77
2023/08/12 11:13:04;;;;;;;3.08;2.00;;;;;;;;;;5038974;28;20060;-75
2023/08/12 11:15:38;;;;;;;1.85;1.75;;;;;;;;;;5040377;28;20090;-74
2023/08/12 11:18:04;;;;;;;3.92;2.08;;;;;;;;;;5039458;28;20516;-73
2023/08/12 11:20:30;;;;;;;3.72;2.10;;;;;;;;;;5039669;28;20121;-75
2023/08/12 11:22:56;;;;;;;2.60;1.77;;;;;;;;;;5039853;28;20402;-74
2023/08/12 11:25:21;;;;;;;1.95;1.80;;;;;;;;;;5042349;28;20054;-76
2023/08/12 11:27:47;;;;;;;1.98;1.80;;;;;;;;;;5041677;28;20039;-75
2023/08/12 11:30:15;;;;;;;2.47;1.75;;;;;;;;;;5042731;28;20033;-74
2023/08/12 11:32:41;;;;;;;2.40;1.85;;;;;;;;;;5035627;28;20048;-75
2023/08/12 11:35:07;;;;;;;2.22;1.85;;;;;;;;;;5038031;28;20482;-75
2023/08/12 11:37:32;;;;;;;3.08;1.95;;;;;;;;;;5035183;28;20036;-74
2023/08/12 11:39:58;;;;;;;2.33;2.03;;;;;;;;;;5043100;28;20058;-74
2023/08/12 11:42:23;;;;;;;3.15;1.98;;;;;;;;;;5038728;28;20356;-77
2023/08/12 11:44:48;;;;;;;3.28;2.10;;;;;;;;;;5042069;28;20321;-74
2023/08/12 11:47:14;;;;;;;4.55;2.28;;;;;;;;;;5035746;28;20028;-75
2023/08/12 11:49:39;;;;;;;5.00;2.10;;;;;;;;;;5038167;28;20412;-76
2023/08/12 11:52:04;;;;;;;1.90;1.80;;;;;;;;;;5038750;28;20017;-75
2023/08/12 11:54:30;;;;;;;2.88;2.38;;;;;;;;;;5042457;28;20143;-75
2023/08/12 11:56:57;;;;;;;2.75;1.85;;;;;;;;;;5039796;28;20423;-77
2023/08/12 11:59:22;;;;;;;2.60;1.98;;;;;;;;;;5055099;28;20036;-74
2023/08/12 12:01:50;;;;;;;3.88;1.90;;;;;;;;;;5038939;28;20440;-74
2023/08/12 12:04:19;;;;;;;1.83;1.50;;;;;;;;;;5040794;28;20025;-74
2023/08/12 12:06:44;;;;;;;1.92;1.70;;;;;;;;;;5056181;28;20036;-74
2023/08/12 12:09:10;;;;;;;3.03;2.15;;;;;;;;;;5038232;28;20037;-75
2023/08/12 12:11:36;;;;;;;3.25;2.58;;;;;;;;;;5038541;28;20024;-79
2023/08/12 12:14:05;;;;;;;2.92;2.15;;;;;;;;;;5042792;28;20373;-75
2023/08/12 12:16:41;;;;;;;3.58;1.70;;;;;;;;;;5039957;28;20456;-73
2023/08/12 12:19:19;;;;;;;2.55;1.80;;;;;;;;;;5044020;28;20029;-73
2023/08/12 12:21:46;;;;;;;3.15;1.92;;;;;;;;;;5056166;28;20055;-75
2023/08/12 12:24:11;;;;;;;5.00;2.15;;;;;;;;;;5056019;28;20512;-75
2023/08/12 12:26:37;;;;;;;2.33;2.13;;;;;;;;;;5041600;28;20025;-74
2023/08/12 12:29:03;;;;;;;1.92;1.80;;;;;;;;;;5041477;28;20060;-74
2023/08/12 12:31:29;;;;;;;2.28;2.08;;;;;;;;;;5045411;28;20455;-75
2023/08/12 12:33:54;;;;;;;2.22;2.03;;;;;;;;;;5042708;28;20048;-76
2023/08/12 12:36:20;;;;;;;2.15;1.95;;;;;;;;;;5041718;28;20059;-73
2023/08/12 12:38:45;;;;;;;2.15;1.95;;;;;;;;;;5039863;28;20041;-77
2023/08/12 12:41:10;;;;;;;2.22;1.80;;;;;;;;;;5036974;28;20109;-74
2023/08/12 12:43:36;;;;;;;3.33;1.85;;;;;;;;;;5033391;28;20029;-75
2023/08/12 12:46:01;;;;;;;2.60;2.05;;;;;;;;;;5051743;28;20028;-75
2023/08/12 12:48:26;;;;;;;2.50;1.70;;;;;;;;;;5037946;28;20116;-74
2023/08/12 12:50:52;;;;;;;2.30;2.10;;;;;;;;;;5038675;28;20024;-74
2023/08/12 12:53:17;;;;;;;2.70;2.00;;;;;;;;;;5038419;28;20024;-75
2023/08/12 12:55:44;;;;;;;1.60;1.50;;;;;;;;;;5039702;28;20020;-74
2023/08/12 12:58:09;;;;;;;3.22;2.05;;;;;;;;;;5037647;28;20036;-75
2023/08/12 13:00:35;;;;;;;2.70;1.90;;;;;;;;;;5042016;28;20025;-75
2023/08/12 13:03:00;;;;;;;3.28;2.10;;;;;;;;;;5042355;28;21132;-74
2023/08/12 13:05:25;;;;;;;2.38;1.70;;;;;;;;;;5043218;28;20035;-75
2023/08/12 13:07:51;;;;;;;2.10;1.90;;;;;;;;;;5041104;28;20028;-76
2023/08/12 13:10:16;;;;;;;3.70;1.85;;;;;;;;;;5043360;28;20028;-76
2023/08/12 13:12:41;;;;;;;2.30;2.10;;;;;;;;;;5043763;28;20029;-76
2023/08/12 13:15:07;;;;;;;2.38;2.17;;;;;;;;;;5039324;28;20029;-74
2023/08/12 13:17:32;;;;;;;2.70;2.03;;;;;;;;;;5037738;28;20039;-76
2023/08/12 13:19:57;;;;;;;2.13;1.80;;;;;;;;;;5035906;28;20032;-73
2023/08/12 13:22:23;;;;;;;3.42;2.28;;;;;;;;;;5038653;28;20028;-76
2023/08/12 13:24:48;;;;;;;2.63;2.42;;;;;;;;;;5036137;28;20439;-74
2023/08/12 13:27:14;;;;;;;2.35;2.15;;;;;;;;;;5039324;28;20024;-74
2023/08/12 13:29:39;;;;;;;2.63;2.08;;;;;;;;;;5038892;28;20032;-75
2023/08/12 13:32:05;;;;;;;2.60;2.40;;;;;;;;;;5036360;28;20158;-74
2023/08/12 13:34:30;;;;;;;2.03;1.83;;;;;;;;;;5041566;28;20024;-75
2023/08/12 13:36:55;;;;;;;3.20;1.83;;;;;;;;;;5038704;28;20029;-74
2023/08/12 13:39:21;;;;;;;2.10;2.00;;;;;;;;;;5037602;28;20472;-76
2023/08/12 13:41:47;;;;;;;2.38;2.17;;;;;;;;;;5040182;28;20025;-75
2023/08/12 13:44:12;;;;;;;2.13;1.95;;;;;;;;;;5040393;28;20035;-76
2023/08/12 13:46:38;;;;;;;2.30;2.10;;;;;;;;;;5043080;28;20146;-75
2023/08/12 13:49:05;;;;;;;1.83;1.73;;;;;;;;;;5039854;28;21162;-74
2023/08/12 13:51:30;;;;;;;3.38;2.17;;;;;;;;;;5043046;28;20086;-75
2023/08/12 13:53:55;;;;;;;2.35;2.15;;;;;;;;;;5040097;28;20024;-74
2023/08/12 13:56:21;;;;;;;2.55;2.03;;;;;;;;;;5038835;28;20428;-75
2023/08/12 13:58:46;;;;;;;2.20;2.00;;;;;;;;;;5043550;28;20029;-74
2023/08/12 14:01:12;;;;;;;2.15;1.95;;;;;;;;;;5045254;28;20044;-74
2023/08/12 14:03:38;;;;;;;2.55;2.00;;;;;;;;;;5043506;28;20044;-75
2023/08/12 14:06:04;;;;;;;2.20;2.00;;;;;;;;;;5044968;28;20025;-74
2023/08/12 14:08:30;;;;;;;1.80;1.70;;;;;;;;;;5044624;28;20082;-73
2023/08/12 14:10:55;;;;;;;2.05;1.95;;;;;;;;;;5046986;28;20035;-74
2023/08/12 14:13:20;;;;;;;2.08;1.90;;;;;;;;;;5046473;28;20078;-74
2023/08/12 14:15:46;;;;;;;2.58;2.03;;;;;;;;;;5039366;28;20154;-75
2023/08/12 14:18:11;;;;;;;2.30;2.10;;;;;;;;;;5042247;28;20033;-76
2023/08/12 14:20:36;;;;;;;2.17;1.88;;;;;;;;;;5041387;28;20043;-74
2023/08/12 14:23:02;;;;;;;2.40;2.20;;;;;;;;;;5041476;28;20414;-76
2023/08/12 14:25:27;;;;;;;2.88;1.95;;;;;;;;;;5040566;28;20108;-74
2023/08/12 14:27:52;;;;;;;3.03;2.03;;;;;;;;;;5044191;28;20459;-75
2023/08/12 14:30:19;;;;;;;2.30;2.08;;;;;;;;;;5043464;28;20054;-73
2023/08/12 14:32:44;;;;;;;2.10;2.00;;;;;;;;;;5046680;28;20718;-73
2023/08/12 14:35:09;;;;;;;2.45;1.88;;;;;;;;;;5044726;28;20028;-74